ICT,Max TemperatureF,Mean TemperatureF,Min TemperatureF,Max Dew PointF,MeanDew PointF,Min DewpointF,Max Humidity, Mean Humidity, Min Humidity, Max Sea Level PressureIn, Mean Sea Level PressureIn, Min Sea Level PressureIn, Max VisibilityMiles, Mean VisibilityMiles, Min VisibilityMiles, Max Wind SpeedMPH, Mean Wind SpeedMPH, Max Gust SpeedMPH,PrecipitationIn, CloudCover, Events, WindDirDegrees
2012-10-1,93,82,74,77,73,71,94,69,52,29.95,29.87,29.80,6,5,2,4,1,,0.08,6,Rain,-1
2012-10-2,94,84,74,78,72,68,94,68,46,29.95,29.87,29.75,7,6,4,6,1,,0.00,3,,195
2012-10-3,94,83,75,76,72,70,91,67,47,29.89,29.79,29.68,7,6,4,7,2,,0.00,3,Rain-Thunderstorm,260
2012-10-4,92,83,74,77,73,70,94,70,52,29.86,29.77,29.68,7,6,2,5,1,,0.00,4,,170
2012-10-5,94,84,75,76,72,68,88,66,46,29.86,29.79,29.71,7,6,6,6,2,,0.00,3,,162
2012-10-6,89,82,74,76,73,72,91,75,58,29.92,29.85,29.80,7,6,4,34,3,,0.12,6,Rain,83
2012-10-7,94,83,73,77,72,70,89,67,46,29.92,29.84,29.74,7,6,6,6,2,,0.00,3,Thunderstorm,0
2012-10-8,93,82,72,75,71,68,90,65,46,29.89,29.82,29.74,7,6,3,6,2,,0.00,3,,198
2012-10-9,91,80,72,76,72,70,92,71,52,29.89,29.81,29.74,7,5,2,9,2,,0.00,5,,280
2012-10-10,91,82,73,76,72,70,93,67,51,29.95,29.86,29.79,6,6,4,5,1,,0.00,3,,197
2012-10-11,92,80,72,73,70,68,90,66,50,29.95,29.87,29.77,6,6,5,9,2,,0.00,3,,272
2012-10-12,90,81,72,74,71,68,90,69,49,29.95,29.85,29.77,7,5,2,5,2,,0.00,4,,190
2012-10-13,93,80,70,76,71,68,91,65,46,29.92,29.84,29.77,7,6,3,6,2,,0.00,4,,176
2012-10-14,94,82,73,74,72,70,93,66,49,29.95,29.85,29.74,7,6,2,6,2,,0.00,3,Thunderstorm,152
2012-10-15,91,82,72,74,71,68,96,69,49,30.01,29.90,29.80,7,5,2,10,2,,0.08,3,,140
2012-10-16,92,80,70,75,71,66,93,67,46,30.01,29.92,29.83,7,5,1,7,2,,0.00,3,,180
2012-10-17,92,82,72,76,71,68,92,70,52,29.98,29.90,29.80,6,5,1,12,2,,0.00,3,Thunderstorm,157
2012-10-18,90,80,72,74,71,68,94,73,52,30.01,29.93,29.83,7,5,1,7,2,,0.00,4,Rain-Thunderstorm,135
2012-10-19,91,82,72,74,71,66,93,70,46,30.01,29.92,29.83,6,5,1,6,2,,0.00,4,,326
2012-10-20,94,83,72,73,70,68,91,67,46,30.01,29.91,29.83,7,6,3,12,2,,0.00,2,Thunderstorm,96
2012-10-21,95,83,71,76,71,70,94,72,46,30.01,29.91,29.83,7,5,1,10,2,,0.00,2,,122
2012-10-22,95,81,69,72,68,63,94,62,36,30.01,29.91,29.83,7,5,2,8,2,,0.00,1,,311
2012-10-23,91,78,66,67,64,59,91,56,36,30.01,29.89,29.80,7,6,6,7,1,,0.00,2,,140
2012-10-24,92,78,65,70,67,64,94,63,43,30.74,29.90,29.74,7,5,2,6,2,,0.00,1,,144
2012-10-25,93,82,70,73,69,66,92,64,41,29.92,29.83,29.74,7,6,2,5,2,,0.00,3,,134
2012-10-26,91,81,71,74,70,68,94,71,49,29.92,29.83,29.74,7,5,2,8,2,,0.00,3,Rain-Thunderstorm,120
2012-10-27,92,79,71,74,71,70,91,78,55,29.92,29.84,29.74,7,5,2,6,2,,0.00,5,Rain-Thunderstorm,204
2012-10-28,92,80,70,75,69,66,94,67,43,29.95,29.85,29.77,7,6,2,5,2,,0.00,3,,143
2012-10-29,91,80,69,71,68,64,94,66,46,29.95,29.84,29.76,7,5,1,6,2,,0.00,2,,160
2012-10-30,92,80,68,73,69,68,94,68,46,29.92,29.83,29.74,7,5,1,6,2,,0.00,1,,130
2012-10-31,94,91,71,75,71,66,94,66,27,29.95,29.87,29.77,7,5,0,7,2,,0.00,2,Fog-Rain,190